createdAt,value
2019-03-10T00:01:11.935Z,97787.20
2019-03-10T00:03:39.447Z,97789.88
2019-03-10T00:06:06.822Z,97790.23
2019-03-10T00:08:34.370Z,97784.52
2019-03-10T00:11:01.770Z,97785.24
2019-03-10T00:13:29.195Z,97775.05
2019-03-10T00:15:56.630Z,97772.24
2019-03-10T00:18:24.040Z,97773.79
2019-03-10T00:20:51.440Z,97769.80
2019-03-10T00:23:18.978Z,97757.55
2019-03-10T00:25:46.438Z,97747.60
2019-03-10T00:28:13.836Z,97743.77
2019-03-10T00:30:41.234Z,97730.50
2019-03-10T00:33:08.656Z,97724.59
2019-03-10T00:35:36.059Z,97734.44
2019-03-10T00:38:03.508Z,97723.69
2019-03-10T00:40:37.346Z,97727.80
2019-03-10T00:43:16.733Z,97719.94
2019-03-10T00:45:50.992Z,97724.52
2019-03-10T00:48:20.406Z,97739.98
2019-03-10T00:50:59.704Z,97748.06
2019-03-10T00:53:27.117Z,97737.34
2019-03-10T00:55:54.529Z,97731.03
2019-03-10T00:58:21.924Z,97720.83
2019-03-10T01:00:49.331Z,97715.41
2019-03-10T01:03:16.772Z,97708.56
2019-03-10T01:05:44.179Z,97727.09
2019-03-10T01:08:11.624Z,97729.76
2019-03-10T01:10:39.347Z,97712.27
2019-03-10T01:13:06.763Z,97707.00
2019-03-10T01:15:34.153Z,97711.21
2019-03-10T01:18:01.638Z,97698.00
2019-03-10T01:20:29.026Z,97693.59
2019-03-10T01:22:56.591Z,97682.69
2019-03-10T01:25:23.990Z,97677.67
2019-03-10T01:27:51.395Z,97668.31
2019-03-10T01:30:18.853Z,97673.80
2019-03-10T01:32:58.793Z,97668.70
2019-03-10T01:35:26.214Z,97652.15
2019-03-10T01:37:53.640Z,97656.28
2019-03-10T01:40:21.035Z,97643.19
2019-03-10T01:42:48.451Z,97637.60
2019-03-10T01:45:15.889Z,97653.61
2019-03-10T01:47:43.276Z,97641.09
2019-03-10T01:50:10.684Z,97635.08
2019-03-10T01:52:38.094Z,97626.91
2019-03-10T01:55:05.553Z,97616.00
2019-03-10T01:57:32.958Z,97619.05
2019-03-10T02:00:00.374Z,97616.28
2019-03-10T02:02:28.270Z,97615.73
2019-03-10T02:04:55.664Z,97615.06
2019-03-10T02:07:23.080Z,97606.25
2019-03-10T02:09:50.482Z,97602.00
2019-03-10T02:12:17.885Z,97595.31
2019-03-10T02:14:45.327Z,97574.66
2019-03-10T02:17:12.715Z,97575.50
2019-03-10T02:19:40.189Z,97578.10
2019-03-10T02:22:07.923Z,97569.47
2019-03-10T02:24:35.519Z,97567.81
2019-03-10T02:27:02.922Z,97566.98
2019-03-10T02:29:30.361Z,97572.09
2019-03-10T02:31:57.779Z,97562.36
2019-03-10T02:34:25.163Z,97555.09
2019-03-10T02:36:52.567Z,97567.02
2019-03-10T02:39:19.985Z,97570.30
2019-03-10T02:41:47.381Z,97570.19
2019-03-10T02:44:14.816Z,97569.22
2019-03-10T02:46:42.225Z,97560.40
2019-03-10T02:49:09.633Z,97556.05
2019-03-10T02:51:37.167Z,97536.98
2019-03-10T02:54:04.618Z,97552.44
2019-03-10T02:56:32.052Z,97532.42
2019-03-10T02:58:59.394Z,97535.95
2019-03-10T03:01:26.972Z,97532.02
2019-03-10T03:03:54.459Z,97538.02
2019-03-10T03:06:22.192Z,97535.52
2019-03-10T03:08:49.622Z,97535.52
2019-03-10T03:11:17.076Z,97526.84
2019-03-10T03:13:44.475Z,97525.06
2019-03-10T03:16:11.906Z,97516.17
2019-03-10T03:18:39.364Z,97508.58
2019-03-10T03:21:06.826Z,97527.73
2019-03-10T03:23:34.282Z,97522.66
2019-03-10T03:26:01.669Z,97527.15
2019-03-10T03:28:29.063Z,97536.63
2019-03-10T03:30:56.498Z,97535.55
2019-03-10T03:33:23.912Z,97530.09
2019-03-10T03:35:52.278Z,97519.34
2019-03-10T03:38:23.112Z,97529.08
2019-03-10T03:40:52.159Z,97514.56
2019-03-10T03:43:19.740Z,97512.34
2019-03-10T03:45:47.161Z,97512.56
2019-03-10T03:48:14.952Z,97511.30
2019-03-10T03:50:42.460Z,97506.49
2019-03-10T03:53:09.857Z,97506.97
2019-03-10T03:55:37.376Z,97508.41
2019-03-10T03:58:04.776Z,97505.12
2019-03-10T04:00:32.349Z,97511.01
2019-03-10T04:02:59.947Z,97506.50
2019-03-10T04:05:27.340Z,97511.91
2019-03-10T04:07:54.759Z,97513.88
2019-03-10T04:10:22.193Z,97504.88
2019-03-10T04:12:49.610Z,97510.05
2019-03-10T04:15:17.061Z,97504.07
2019-03-10T04:17:44.509Z,97508.13
2019-03-10T04:20:11.947Z,97513.36
2019-03-10T04:22:39.404Z,97514.64
2019-03-10T04:25:06.807Z,97516.91
2019-03-10T04:27:34.232Z,97514.92
2019-03-10T04:30:01.705Z,97511.39
2019-03-10T04:32:29.047Z,97519.70
2019-03-10T04:34:56.484Z,97516.59
2019-03-10T04:37:23.859Z,97510.67
2019-03-10T04:39:51.399Z,97504.80
2019-03-10T04:42:18.880Z,97499.70
2019-03-10T04:44:46.289Z,97496.50
2019-03-10T04:47:13.758Z,97513.52
2019-03-10T04:49:41.163Z,97503.19
2019-03-10T04:52:08.591Z,97509.81
2019-03-10T04:54:38.511Z,97502.21
2019-03-10T04:57:06.062Z,97493.70
2019-03-10T04:59:33.452Z,97486.36
2019-03-10T05:02:00.880Z,97485.08
2019-03-10T05:04:28.284Z,97492.30
2019-03-10T05:06:55.666Z,97486.75
2019-03-10T05:09:23.062Z,97488.39
2019-03-10T05:11:50.466Z,97479.98
2019-03-10T05:14:17.871Z,97474.48
2019-03-10T05:16:45.271Z,97477.19
2019-03-10T05:19:12.864Z,97468.70
2019-03-10T05:21:40.254Z,97474.88
2019-03-10T05:24:07.685Z,97474.36
2019-03-10T05:26:35.095Z,97479.28
2019-03-10T05:29:02.501Z,97478.77
2019-03-10T05:31:29.947Z,97489.81
2019-03-10T05:33:57.360Z,97484.33
2019-03-10T05:36:24.757Z,97496.44
2019-03-10T05:38:52.146Z,97487.95
2019-03-10T05:41:19.567Z,97485.13
2019-03-10T05:43:46.987Z,97486.45
2019-03-10T05:46:14.385Z,97498.91
2019-03-10T05:48:41.850Z,97497.08
2019-03-10T05:51:09.240Z,97499.66
2019-03-10T05:53:36.647Z,97507.20
2019-03-10T05:56:04.049Z,97495.38
2019-03-10T05:58:31.439Z,97489.27
2019-03-10T06:00:58.857Z,97489.08
2019-03-10T06:03:26.305Z,97486.55
2019-03-10T06:05:53.727Z,97485.32
2019-03-10T06:08:21.147Z,97490.56
2019-03-10T06:10:48.629Z,97477.33
2019-03-10T06:13:16.039Z,97472.53
2019-03-10T06:15:43.448Z,97488.08
2019-03-10T06:18:13.888Z,97483.07
2019-03-10T06:20:38.365Z,97476.84
2019-03-10T06:23:05.838Z,97502.77
2019-03-10T06:25:35.046Z,97513.21
2019-03-10T06:28:00.667Z,97507.72
2019-03-10T06:30:28.080Z,97508.68
2019-03-10T06:32:55.496Z,97514.23
2019-03-10T06:35:22.953Z,97514.56
2019-03-10T06:37:50.426Z,97517.26
2019-03-10T06:40:17.861Z,97519.73
2019-03-10T06:42:45.293Z,97520.89
2019-03-10T06:45:13.352Z,97513.83
2019-03-10T06:47:40.763Z,97511.38
2019-03-10T06:50:08.169Z,97517.36
2019-03-10T06:52:35.579Z,97513.63
2019-03-10T06:55:02.987Z,97502.13
2019-03-10T06:57:30.956Z,97515.20
2019-03-10T06:59:58.341Z,97510.19
2019-03-10T07:02:26.596Z,97517.12
2019-03-10T07:04:54.032Z,97513.25
2019-03-10T07:07:21.640Z,97516.40
2019-03-10T07:09:49.051Z,97501.22
2019-03-10T07:12:16.451Z,97510.05
2019-03-10T07:14:43.859Z,97511.55
2019-03-10T07:17:11.260Z,97517.73
2019-03-10T07:19:38.694Z,97513.77
2019-03-10T07:22:07.906Z,97504.22
2019-03-10T07:24:35.317Z,97486.81
2019-03-10T07:27:02.742Z,97497.69
2019-03-10T07:29:30.159Z,97489.45
2019-03-10T07:31:58.332Z,97499.73
2019-03-10T07:34:31.309Z,97495.48
2019-03-10T07:37:04.498Z,97495.73
2019-03-10T07:39:32.071Z,97504.27
2019-03-10T07:42:10.218Z,97511.20
2019-03-10T07:44:37.965Z,97497.42
2019-03-10T07:50:00.337Z,97502.26
2019-03-10T07:52:33.281Z,97507.88
2019-03-10T07:55:00.696Z,97494.61
2019-03-10T07:57:35.659Z,97491.77
2019-03-10T08:00:08.665Z,97495.34
2019-03-10T08:02:48.922Z,97493.09
2019-03-10T08:05:17.114Z,97509.37
2019-03-10T08:07:46.165Z,97498.72
2019-03-10T08:10:33.060Z,97488.99
2019-03-10T08:13:12.314Z,97493.48
2019-03-10T08:15:58.474Z,97475.42
2019-03-10T08:18:31.440Z,97481.78
2019-03-10T08:21:03.422Z,97489.59
2019-03-10T08:26:27.518Z,97488.69
2019-03-10T08:28:57.818Z,97483.34
2019-03-10T08:31:27.002Z,97483.97
2019-03-10T08:34:04.337Z,97468.50
2019-03-10T08:36:34.130Z,97477.33
2019-03-10T08:39:05.411Z,97470.61
2019-03-10T08:41:34.167Z,97470.06
2019-03-10T08:44:02.387Z,97470.37
2019-03-10T08:46:40.530Z,97486.46
2019-03-10T08:49:08.078Z,97480.21
2019-03-10T08:51:39.854Z,97496.83
2019-03-10T08:54:10.826Z,97496.34
2019-03-10T08:56:50.945Z,97495.67
2019-03-10T08:59:19.979Z,97490.33
2019-03-10T09:01:53.024Z,97492.48
2019-03-10T09:04:25.168Z,97503.22
2019-03-10T09:07:08.428Z,97482.23
2019-03-10T09:09:39.870Z,97489.05
2019-03-10T09:12:12.930Z,97505.02
2019-03-10T09:14:43.308Z,97497.77
2019-03-10T09:17:16.540Z,97510.20
2019-03-10T09:19:44.399Z,97523.44
2019-03-10T09:22:17.328Z,97512.88
2019-03-10T09:24:50.392Z,97504.81
2019-03-10T09:27:28.948Z,97514.89
2019-03-10T09:30:11.552Z,97511.41
2019-03-10T09:32:39.944Z,97517.80
2019-03-10T09:35:08.209Z,97520.12
2019-03-10T09:40:32.650Z,97538.56
2019-03-10T09:43:15.921Z,97529.25
2019-03-10T09:45:45.913Z,97529.27
2019-03-10T09:48:27.229Z,97520.34
2019-03-10T09:50:57.082Z,97496.44
2019-03-10T09:53:30.225Z,97508.74
2019-03-10T09:56:02.553Z,97506.24
2019-03-10T09:58:39.871Z,97464.94
2019-03-10T10:01:21.157Z,97462.58
2019-03-10T10:03:56.989Z,97484.69
2019-03-10T10:06:25.174Z,97497.72
2019-03-10T10:09:07.639Z,97495.86
2019-03-10T10:11:37.099Z,97495.50
2019-03-10T10:14:06.863Z,97494.77
2019-03-10T10:16:50.101Z,97501.27
2019-03-10T10:19:25.982Z,97503.33
2019-03-10T10:21:53.470Z,97520.31
2019-03-10T10:24:20.889Z,97521.69
2019-03-10T10:26:48.295Z,97527.73
2019-03-10T10:29:18.684Z,97540.19
2019-03-10T10:31:50.702Z,97535.08
2019-03-10T10:34:19.072Z,97539.56
2019-03-10T10:36:47.415Z,97519.92
2019-03-10T10:39:15.713Z,97526.53
2019-03-10T10:41:48.779Z,97522.81
2019-03-10T10:44:18.171Z,97510.08
2019-03-10T10:46:48.062Z,97496.70
2019-03-10T10:49:15.875Z,97496.58
2019-03-10T10:51:55.073Z,97487.47
2019-03-10T10:54:28.022Z,97492.43
2019-03-10T10:56:58.978Z,97485.02
2019-03-10T10:59:36.360Z,97481.12
2019-03-10T11:02:17.582Z,97466.36
2019-03-10T11:04:45.963Z,97468.95
2019-03-10T11:07:15.202Z,97463.09
2019-03-10T11:09:47.019Z,97450.53
2019-03-10T11:15:10.321Z,97446.31
2019-03-10T11:17:41.109Z,97435.03
2019-03-10T11:20:11.225Z,97447.27
2019-03-10T11:22:44.182Z,97430.50
2019-03-10T11:25:12.993Z,97436.78
2019-03-10T11:27:55.364Z,97416.18
2019-03-10T11:30:38.565Z,97415.04
2019-03-10T11:33:22.780Z,97401.77
2019-03-10T11:35:53.600Z,97416.57
2019-03-10T11:38:22.029Z,97415.43
2019-03-10T11:40:52.266Z,97411.23
2019-03-10T11:43:23.516Z,97421.03
2019-03-10T11:45:54.525Z,97417.44
2019-03-10T11:48:27.582Z,97432.79
2019-03-10T11:50:55.026Z,97450.27
2019-03-10T11:53:25.711Z,97456.31
2019-03-10T11:56:01.209Z,97470.73
2019-03-10T11:58:30.858Z,97505.78
2019-03-10T12:00:57.842Z,97502.77
2019-03-10T12:06:22.591Z,97509.89
2019-03-10T12:08:52.127Z,97523.13
2019-03-10T12:11:19.575Z,97499.94
2019-03-10T12:13:46.972Z,97519.03
2019-03-10T12:16:14.513Z,97519.81
2019-03-10T12:18:41.925Z,97518.02
2019-03-10T12:21:09.706Z,97520.48
2019-03-10T12:23:37.131Z,97536.61
2019-03-10T12:26:04.539Z,97525.39
2019-03-10T12:28:31.956Z,97528.05
2019-03-10T12:30:59.366Z,97522.01
2019-03-10T12:33:26.763Z,97526.30
2019-03-10T12:35:54.163Z,97525.23
2019-03-10T12:38:21.573Z,97526.00
2019-03-10T12:40:48.989Z,97526.98
2019-03-10T12:43:16.474Z,97528.41
2019-03-10T12:45:44.086Z,97537.44
2019-03-10T12:48:11.580Z,97525.53
2019-03-10T12:50:39.041Z,97527.96
2019-03-10T12:53:06.464Z,97528.52
2019-03-10T12:55:33.963Z,97526.84
2019-03-10T12:58:01.356Z,97526.38
2019-03-10T13:00:28.780Z,97526.83
2019-03-10T13:02:56.168Z,97525.59
2019-03-10T13:05:23.607Z,97515.20
2019-03-10T13:07:51.064Z,97522.70
2019-03-10T13:10:18.489Z,97507.49
2019-03-10T13:12:46.046Z,97509.33
2019-03-10T13:15:13.530Z,97489.27
2019-03-10T13:17:40.938Z,97497.06
2019-03-10T13:20:09.044Z,97472.22
2019-03-10T13:22:36.460Z,97466.11
2019-03-10T13:25:03.932Z,97469.92
2019-03-10T13:27:30.908Z,97455.70
2019-03-10T13:29:57.863Z,97448.48
2019-03-10T13:32:25.288Z,97445.23
2019-03-10T13:34:53.278Z,97431.13
2019-03-10T13:37:20.669Z,97429.93
2019-03-10T13:39:47.756Z,97426.36
2019-03-10T13:42:14.698Z,97437.47
2019-03-10T13:44:41.661Z,97428.52
2019-03-10T13:47:08.599Z,97434.55
2019-03-10T13:49:36.474Z,97421.02
2019-03-10T13:52:03.423Z,97430.59
2019-03-10T13:54:30.435Z,97437.12
2019-03-10T13:56:58.302Z,97427.44
2019-03-10T13:59:24.406Z,97417.45
2019-03-10T14:01:51.408Z,97418.94
2019-03-10T14:04:18.367Z,97414.55
2019-03-10T14:06:45.332Z,97425.45
2019-03-10T14:09:12.372Z,97401.83
2019-03-10T14:11:39.823Z,97407.99
2019-03-10T14:14:06.827Z,97422.31
2019-03-10T14:16:33.868Z,97427.25
2019-03-10T14:19:00.845Z,97448.26
2019-03-10T14:21:27.955Z,97471.16
2019-03-10T14:23:54.952Z,97496.92
2019-03-10T14:26:22.208Z,97503.66
2019-03-10T14:28:49.536Z,97499.84
2019-03-10T14:31:16.986Z,97521.91
2019-03-10T14:33:44.632Z,97529.13
2019-03-10T14:36:12.056Z,97541.67
2019-03-10T14:38:39.492Z,97538.34
2019-03-10T14:41:07.042Z,97553.81
2019-03-10T14:43:34.434Z,97537.69
2019-03-10T14:46:02.355Z,97551.23
2019-03-10T14:48:29.791Z,97553.78
2019-03-10T14:50:56.754Z,97560.85
2019-03-10T14:53:24.151Z,97572.67
2019-03-10T14:55:51.667Z,97567.82
2019-03-10T14:58:19.076Z,97569.17
2019-03-10T15:00:46.525Z,97549.08
2019-03-10T15:03:14.015Z,97556.80
2019-03-10T15:05:41.410Z,97553.40
2019-03-10T15:08:08.834Z,97548.73
2019-03-10T15:10:36.253Z,97550.68
2019-03-10T15:13:03.647Z,97545.92
2019-03-10T15:15:31.073Z,97541.59
2019-03-10T15:17:58.459Z,97539.31
2019-03-10T15:20:26.036Z,97527.89
2019-03-10T15:22:53.600Z,97523.73
2019-03-10T15:25:22.090Z,97530.00
2019-03-10T15:27:49.559Z,97534.66
2019-03-10T15:30:18.082Z,97538.72
2019-03-10T15:32:45.816Z,97529.09
2019-03-10T15:35:14.589Z,97537.73
2019-03-10T15:37:42.056Z,97547.42
2019-03-10T15:40:13.483Z,97543.72
2019-03-10T15:42:40.973Z,97549.19
2019-03-10T15:45:09.377Z,97547.14
2019-03-10T15:47:36.770Z,97550.45
2019-03-10T15:50:19.924Z,97554.72
2019-03-10T15:52:47.510Z,97554.97
2019-03-10T15:55:14.966Z,97557.56
2019-03-10T15:57:50.225Z,97549.69
2019-03-10T16:00:12.518Z,97553.48
2019-03-10T16:02:39.941Z,97567.73
2019-03-10T16:05:07.442Z,97562.91
2019-03-10T16:07:34.840Z,97559.66
2019-03-10T16:10:02.258Z,97565.81
2019-03-10T16:12:29.652Z,97552.44
2019-03-10T16:14:57.087Z,97558.10
2019-03-10T16:17:24.537Z,97551.98
2019-03-10T16:19:52.011Z,97546.95
2019-03-10T16:22:19.390Z,97536.45
2019-03-10T16:24:46.811Z,97539.61
2019-03-10T16:27:14.211Z,97528.06
2019-03-10T16:29:41.766Z,97534.97
2019-03-10T16:32:09.170Z,97539.77
2019-03-10T16:34:36.590Z,97538.28
2019-03-10T16:37:04.096Z,97546.56
2019-03-10T16:39:32.235Z,97547.48
2019-03-10T16:41:59.636Z,97541.50
2019-03-10T16:44:27.061Z,97542.98
2019-03-10T16:46:54.463Z,97541.61
2019-03-10T16:49:21.879Z,97543.48
2019-03-10T16:51:49.279Z,97561.80
2019-03-10T16:54:16.699Z,97554.84
2019-03-10T16:56:44.157Z,97555.71
2019-03-10T16:59:11.609Z,97553.36
2019-03-10T17:01:39.096Z,97549.84
2019-03-10T17:04:06.492Z,97553.55
2019-03-10T17:06:33.907Z,97559.42
2019-03-10T17:09:01.540Z,97554.83
2019-03-10T17:11:29.106Z,97563.39
2019-03-10T17:13:56.482Z,97579.88
2019-03-10T17:16:23.920Z,97585.36
2019-03-10T17:18:51.563Z,97583.33
2019-03-10T17:21:18.959Z,97594.84
2019-03-10T17:23:46.412Z,97582.69
2019-03-10T17:26:13.869Z,97591.58
2019-03-10T17:28:41.373Z,97611.62
2019-03-10T17:31:08.956Z,97617.66
2019-03-10T17:33:36.424Z,97612.20
2019-03-10T17:36:03.891Z,97616.66
2019-03-10T17:38:31.298Z,97622.74
2019-03-10T17:40:58.736Z,97631.05
2019-03-10T17:43:26.151Z,97634.03
2019-03-10T17:45:53.599Z,97632.91
2019-03-10T17:48:21.060Z,97643.20
2019-03-10T17:50:48.468Z,97641.97
2019-03-10T17:53:16.074Z,97637.88
2019-03-10T17:55:43.532Z,97640.22
2019-03-10T17:58:11.001Z,97647.58
2019-03-10T18:00:38.442Z,97639.86
2019-03-10T18:03:05.845Z,97652.20
2019-03-10T18:05:33.600Z,97643.30
2019-03-10T18:08:01.058Z,97644.67
2019-03-10T18:10:28.532Z,97655.70
2019-03-10T18:12:56.151Z,97662.86
2019-03-10T18:15:23.574Z,97674.50
2019-03-10T18:17:51.012Z,97669.66
2019-03-10T18:20:19.515Z,97684.80
2019-03-10T18:22:46.936Z,97697.23
2019-03-10T18:25:14.323Z,97703.50
2019-03-10T18:27:41.760Z,97703.30
2019-03-10T18:30:18.667Z,97706.56
2019-03-10T18:32:46.134Z,97704.72
2019-03-10T18:35:13.529Z,97709.06
2019-03-10T18:37:41.015Z,97717.19
2019-03-10T18:40:10.948Z,97712.98
2019-03-10T18:42:38.467Z,97719.41
2019-03-10T18:45:05.884Z,97730.77
2019-03-10T18:47:33.275Z,97735.48
2019-03-10T18:50:00.694Z,97747.34
2019-03-10T18:52:28.121Z,97752.99
2019-03-10T18:54:55.549Z,97756.45
2019-03-10T18:57:22.951Z,97758.70
2019-03-10T18:59:50.339Z,97758.59
2019-03-10T19:02:17.767Z,97762.42
2019-03-10T19:04:45.208Z,97765.99
2019-03-10T19:07:12.625Z,97762.61
2019-03-10T19:09:40.032Z,97768.63
2019-03-10T19:12:07.465Z,97752.20
2019-03-10T19:14:34.886Z,97758.84
2019-03-10T19:17:02.316Z,97761.47
2019-03-10T19:19:31.916Z,97755.19
2019-03-10T19:21:57.233Z,97755.05
2019-03-10T19:24:24.627Z,97760.59
2019-03-10T19:26:52.043Z,97762.78
2019-03-10T19:29:19.474Z,97769.16
2019-03-10T19:31:46.892Z,97767.77
2019-03-10T19:34:14.386Z,97767.70
2019-03-10T19:36:41.801Z,97768.27
2019-03-10T19:39:09.202Z,97761.13
2019-03-10T19:41:36.741Z,97776.00
2019-03-10T19:44:04.187Z,97785.47
2019-03-10T19:46:31.600Z,97790.02
2019-03-10T19:48:58.991Z,97790.16
2019-03-10T19:51:26.421Z,97789.20
2019-03-10T19:53:53.854Z,97795.24
2019-03-10T19:56:21.271Z,97793.70
2019-03-10T19:58:48.678Z,97802.91
2019-03-10T20:01:16.768Z,97801.22
2019-03-10T20:03:44.175Z,97804.70
2019-03-10T20:06:11.566Z,97806.34
2019-03-10T20:08:38.966Z,97818.26
2019-03-10T20:11:06.397Z,97815.62
2019-03-10T20:13:33.848Z,97813.59
2019-03-10T20:16:01.263Z,97825.64
2019-03-10T20:18:28.707Z,97815.92
2019-03-10T20:20:56.491Z,97815.77
2019-03-10T20:23:23.915Z,97824.30
2019-03-10T20:25:51.327Z,97823.78
2019-03-10T20:28:18.738Z,97825.94
2019-03-10T20:30:46.143Z,97831.54
2019-03-10T20:33:13.905Z,97833.56
2019-03-10T20:35:41.371Z,97843.05
2019-03-10T20:38:08.766Z,97839.21
2019-03-10T20:40:36.211Z,97836.90
2019-03-10T20:43:03.599Z,97837.95
2019-03-10T20:45:31.220Z,97841.97
2019-03-10T20:47:58.650Z,97826.31
2019-03-10T20:50:26.116Z,97843.22
2019-03-10T20:52:53.517Z,97835.00
2019-03-10T20:55:21.028Z,97846.50
2019-03-10T20:57:48.485Z,97837.02
2019-03-10T21:00:18.705Z,97842.66
2019-03-10T21:02:46.094Z,97843.04
2019-03-10T21:05:13.640Z,97836.66
2019-03-10T21:07:41.054Z,97851.27
2019-03-10T21:10:10.481Z,97859.36
2019-03-10T21:12:41.842Z,97860.73
2019-03-10T21:15:06.120Z,97866.59
2019-03-10T21:17:33.509Z,97882.13
2019-03-10T21:20:01.037Z,97891.16
2019-03-10T21:22:28.569Z,97902.80
2019-03-10T21:24:55.964Z,97902.21
2019-03-10T21:27:23.399Z,97914.84
2019-03-10T21:29:50.381Z,97917.12
2019-03-10T21:32:17.754Z,97911.21
2019-03-10T21:34:45.593Z,97904.30
2019-03-10T21:37:13.893Z,97903.30
2019-03-10T21:39:41.302Z,97917.41
2019-03-10T21:42:08.713Z,97927.41
2019-03-10T21:44:36.129Z,97929.09
2019-03-10T21:47:03.571Z,97923.88
2019-03-10T21:49:31.025Z,97920.73
2019-03-10T21:51:58.430Z,97928.91
2019-03-10T21:54:25.850Z,97929.17
2019-03-10T21:56:53.308Z,97929.12
2019-03-10T21:59:20.702Z,97933.83
2019-03-10T22:01:48.107Z,97931.58
2019-03-10T22:04:15.593Z,97933.66
2019-03-10T22:06:43.814Z,97937.02
2019-03-10T22:09:11.241Z,97938.38
2019-03-10T22:11:38.662Z,97936.41
2019-03-10T22:14:06.111Z,97938.02
2019-03-10T22:16:33.545Z,97937.56
2019-03-10T22:19:00.934Z,97944.96
2019-03-10T22:21:28.365Z,97941.38
2019-03-10T22:23:59.571Z,97943.98
2019-03-10T22:26:23.158Z,97944.45
2019-03-10T22:28:50.639Z,97947.27
2019-03-10T22:31:18.100Z,97942.76
2019-03-10T22:33:45.582Z,97943.39
2019-03-10T22:36:12.959Z,97945.19
2019-03-10T22:38:40.480Z,97945.01
2019-03-10T22:41:07.873Z,97945.50
2019-03-10T22:43:35.283Z,97951.52
2019-03-10T22:46:02.680Z,97965.06
2019-03-10T22:48:30.073Z,97972.47
2019-03-10T22:50:57.571Z,97992.49
2019-03-10T22:53:25.019Z,98009.38
2019-03-10T22:55:52.443Z,98016.70
2019-03-10T22:58:19.846Z,98023.84
2019-03-10T23:00:48.787Z,98025.63
2019-03-10T23:03:16.176Z,98026.34
2019-03-10T23:05:43.582Z,98030.39
2019-03-10T23:08:10.982Z,98028.96
2019-03-10T23:10:38.393Z,98029.55
2019-03-10T23:13:05.833Z,98028.70
2019-03-10T23:15:33.329Z,98013.77
2019-03-10T23:18:00.726Z,98019.72
2019-03-10T23:20:28.142Z,98012.77
2019-03-10T23:22:55.540Z,98014.04
2019-03-10T23:25:22.966Z,98013.98
2019-03-10T23:27:50.374Z,98002.36
2019-03-10T23:30:17.797Z,97999.85
2019-03-10T23:32:45.576Z,97994.14
2019-03-10T23:35:13.514Z,97987.06
2019-03-10T23:37:40.961Z,97984.13
2019-03-10T23:40:10.912Z,97985.98
2019-03-10T23:42:38.361Z,97983.04
2019-03-10T23:45:05.806Z,97984.13
2019-03-10T23:47:35.086Z,97984.16
2019-03-10T23:50:00.727Z,97969.73
2019-03-10T23:52:28.119Z,97974.27
2019-03-10T23:54:55.553Z,97976.72
2019-03-10T23:57:22.954Z,97971.91
2019-03-10T23:59:50.388Z,97967.73
